Time;durP1;ratioP1;P1;durP2;ratioP2;P2;SDS_P1;SDS_P2;PMS_P1;PMS_P2;Temp;Humidity;BMP_temperature;BMP_pressure;BME280_temperature;BME280_humidity;BME280_pressure;Samples;Min_cycle;Max_cycle;Signal;HPM_P1;HPM_P2
2022/05/25 04:18:45;;;;;;;14.75;8.50;;;9.10;96.30;;;;;;5005737;23;20051;-80
2022/05/25 04:21:11;;;;;;;24.55;8.48;;;9.10;96.20;;;;;;4902660;29;20052;-77
2022/05/25 04:23:40;;;;;;;17.80;8.65;;;9.20;96.20;;;;;;4902699;29;20032;-76
2022/05/25 04:26:09;;;;;;;19.73;8.70;;;9.50;96.40;;;;;;4902776;29;20488;-79
2022/05/25 04:28:35;;;;;;;14.23;8.57;;;9.30;96.20;;;;;;4918791;29;20027;-78
2022/05/25 04:31:01;;;;;;;21.00;8.25;;;9.30;96.50;;;;;;4906827;29;20071;-80
2022/05/25 04:33:29;;;;;;;;;;;9.40;96.60;;;;;;4923079;29;20376;-77
2022/05/25 06:52:41;;;;;;;9.23;3.00;;;16.90;81.00;;;;;;4880840;29;20470;-82
2022/05/25 09:29:48;;;;;;;;;;;;;;;;;;;;;
2022/05/25 09:33:54;;;;;;;;;;;;;;;;;;;;;
2022/05/25 09:40:11;;;;;;;7.45;2.47;;;18.10;69.20;;;;;;4863114;29;20341;-83
2022/05/25 09:43:00;;;;;;;9.40;2.75;;;17.90;69.30;;;;;;4864545;29;20052;-80
2022/05/25 09:45:35;;;;;;;;;;;17.90;69.30;;;;;;4888214;29;20044;-81
2022/05/25 09:48:14;;;;;;;9.18;2.90;;;17.80;70.90;;;;;;4887801;29;20018;-80
2022/05/25 09:50:51;;;;;;;10.02;3.10;;;17.70;69.60;;;;;;4887522;29;20060;-80
2022/05/25 09:53:19;;;;;;;8.57;4.68;;;17.60;70.70;;;;;;4887493;29;20040;-80
2022/05/25 09:56:15;;;;;;;17.85;4.65;;;17.90;72.00;;;;;;4887419;29;20036;-80
2022/05/25 09:58:47;;;;;;;15.00;4.75;;;18.20;71.50;;;;;;4887296;29;20040;-79
2022/05/25 10:01:31;;;;;;;13.77;5.03;;;18.10;70.80;;;;;;4871717;29;20401;-79
2022/05/25 10:08:23;;;;;;;22.02;9.70;;;17.80;72.80;;;;;;4860740;29;20120;-81
2022/05/25 10:10:59;;;;;;;13.02;8.85;;;17.50;73.90;;;;;;4843659;29;20500;-80
2022/05/25 11:10:49;;;;;;;5.55;1.23;;;19.70;62.70;;;;;;4798967;29;20136;-82
2022/05/25 11:21:38;;;;;;;4.90;1.15;;;19.90;59.20;;;;;;4822892;29;20046;-75
2022/05/25 11:24:45;;;;;;;8.75;1.70;;;19.80;59.20;;;;;;4822734;29;20102;-77
2022/05/25 11:27:31;;;;;;;8.05;1.15;;;19.60;58.50;;;;;;4802562;29;20116;-78
2022/05/25 11:30:11;;;;;;;6.00;1.52;;;19.30;59.00;;;;;;4878720;29;20075;-78
2022/05/25 11:32:51;;;;;;;5.18;1.40;;;19.30;60.50;;;;;;4879132;29;20109;-76
2022/05/25 11:35:29;;;;;;;7.07;1.48;;;19.10;60.60;;;;;;4871717;29;20374;-75
2022/05/25 11:38:21;;;;;;;3.55;1.15;;;19.10;60.80;;;;;;4882227;29;20047;-76
2022/05/25 11:41:20;;;;;;;6.70;1.30;;;19.20;60.50;;;;;;4869597;29;20049;-76
2022/05/25 11:44:24;;;;;;;6.88;1.25;;;19.30;59.10;;;;;;4866513;29;20096;-76
2022/05/25 11:46:50;;;;;;;6.57;1.10;;;19.30;57.70;;;;;;4882281;29;20461;-76
2022/05/25 11:49:28;;;;;;;5.70;1.30;;;19.40;59.00;;;;;;4866989;29;20041;-76
2022/05/25 11:52:25;;;;;;;5.35;1.15;;;19.40;58.90;;;;;;4882384;29;20045;-76
2022/05/25 11:55:11;;;;;;;5.35;1.42;;;19.40;57.30;;;;;;4882036;29;20049;-76
2022/05/25 11:58:08;;;;;;;10.25;2.13;;;19.30;58.90;;;;;;4881670;29;20054;-70
2022/05/25 12:00:58;;;;;;;3.10;0.90;;;19.20;56.70;;;;;;4854884;29;20060;-79
2022/05/25 12:03:58;;;;;;;6.38;1.17;;;19.10;57.70;;;;;;4866999;29;20044;-80
2022/05/25 12:06:27;;;;;;;;;;;19.00;57.90;;;;;;4810977;29;20056;-79
2022/05/25 12:09:17;;;;;;;12.75;1.60;;;18.80;59.20;;;;;;4840493;29;19973;-81
2022/05/25 12:12:05;;;;;;;10.82;2.25;;;18.90;61.00;;;;;;4899735;29;20040;-81
2022/05/25 12:14:39;;;;;;;7.45;1.30;;;18.80;60.60;;;;;;4885507;29;20355;-80
2022/05/25 12:17:20;;;;;;;6.20;1.30;;;18.70;58.20;;;;;;4885290;29;20555;-80
2022/05/25 12:19:56;;;;;;;7.50;1.80;;;18.70;59.30;;;;;;4887823;29;20111;-81
2022/05/25 12:22:28;;;;;;;8.55;1.75;;;18.80;59.20;;;;;;4887499;29;20040;-76
2022/05/25 12:25:02;;;;;;;6.85;1.63;;;18.60;58.60;;;;;;4895863;29;20046;-76
2022/05/25 12:27:49;;;;;;;9.18;1.85;;;18.50;59.30;;;;;;4895723;29;20032;-80
2022/05/25 12:30:32;;;;;;;5.18;1.30;;;18.50;59.80;;;;;;4885460;29;20067;-81
2022/05/25 12:33:05;;;;;;;8.20;1.48;;;18.30;58.50;;;;;;4885140;29;20059;-80
2022/05/25 12:35:33;;;;;;;7.53;1.30;;;18.40;59.10;;;;;;4885320;29;20052;-80
2022/05/25 12:38:01;;;;;;;5.85;1.33;;;18.50;59.20;;;;;;4885215;29;20036;-81
2022/05/25 12:40:27;;;;;;;6.25;1.45;;;18.40;57.90;;;;;;4884972;29;20516;-80
2022/05/25 12:42:58;;;;;;;9.05;1.40;;;18.30;58.80;;;;;;4885285;29;20040;-81
2022/05/25 12:48:32;;;;;;;6.18;1.40;;;18.40;58.40;;;;;;4900904;29;20450;-81
2022/05/25 12:51:29;;;;;;;11.57;1.83;;;18.60;59.10;;;;;;4886977;29;20055;-81
2022/05/25 12:53:59;;;;;;;9.30;2.15;;;18.80;57.10;;;;;;4887684;29;20492;-80
2022/05/25 12:56:24;;;;;;;8.73;1.50;;;18.90;56.30;;;;;;4888571;29;20064;-81
2022/05/25 16:25:54;;;;;;;14.23;2.40;;;15.10;85.60;;;;;;5092214;23;20084;-80
2022/05/25 16:28:19;;;;;;;11.05;2.85;;;15.00;84.90;;;;;;4901966;29;20047;-74
2022/05/25 16:30:45;;;;;;;17.33;3.25;;;15.00;86.90;;;;;;4903128;29;20050;-75
2022/05/25 16:36:19;;;;;;;14.00;2.85;;;14.90;90.30;;;;;;4892420;29;20055;-78
2022/05/25 16:51:56;;;;;;;18.05;4.00;;;14.40;91.60;;;;;;1354417;27;20057;-84
2022/05/25 17:17:16;;;;;;;15.10;3.65;;;14.10;92.00;;;;;;5176629;23;20082;-77
2022/05/25 17:59:38;;;;;;;19.10;4.53;;;14.00;92.90;;;;;;4879790;29;20043;-82
2022/05/25 18:05:56;;;;;;;21.73;4.97;;;14.00;92.80;;;;;;4879521;29;20068;-80
2022/05/25 18:08:29;;;;;;;21.42;4.40;;;14.00;92.90;;;;;;4868021;29;20180;-82
2022/05/25 18:11:01;;;;;;;20.33;5.00;;;14.00;92.50;;;;;;4852347;29;20055;-80
2022/05/25 18:13:30;;;;;;;20.63;4.55;;;14.00;92.70;;;;;;4867547;29;20041;-81
2022/05/25 18:16:14;;;;;;;20.85;4.28;;;14.00;92.40;;;;;;4867146;29;20053;-80
2022/05/25 18:18:54;;;;;;;20.27;4.05;;;14.10;92.40;;;;;;4882977;29;20089;-83
2022/05/25 18:21:42;;;;;;;19.63;3.55;;;14.00;92.80;;;;;;4867905;29;20083;-81
2022/05/25 18:24:47;;;;;;;29.92;4.43;;;14.10;92.60;;;;;;4830657;29;20503;-81
2022/05/25 18:27:33;;;;;;;22.70;4.93;;;14.00;92.80;;;;;;4830100;29;20046;-80
2022/05/25 18:30:46;;;;;;;25.83;5.03;;;14.10;92.90;;;;;;4828266;29;20054;-79
2022/05/25 18:34:23;;;;;;;20.10;4.72;;;14.10;93.00;;;;;;4813101;29;20100;-80
2022/05/25 18:37:50;;;;;;;19.05;4.22;;;14.10;92.60;;;;;;4847373;29;20061;-84
2022/05/25 18:40:16;;;;;;;23.23;4.20;;;14.10;92.60;;;;;;4864910;29;20062;-75
2022/05/25 18:42:50;;;;;;;24.65;4.50;;;14.20;92.70;;;;;;4901767;29;20143;-75
2022/05/25 18:45:18;;;;;;;30.90;5.07;;;14.20;92.30;;;;;;4885702;29;20059;-76
2022/05/25 18:47:49;;;;;;;29.10;4.75;;;14.20;92.20;;;;;;4885516;29;20528;-76
2022/05/25 18:50:20;;;;;;;27.63;4.45;;;14.20;92.30;;;;;;4901464;29;20481;-75
2022/05/25 18:52:46;;;;;;;22.90;4.82;;;14.20;92.00;;;;;;4902081;29;20096;-76
2022/05/25 18:55:16;;;;;;;19.48;4.03;;;14.20;92.40;;;;;;4901955;29;20115;-76
2022/05/25 18:58:06;;;;;;;21.35;4.57;;;14.20;91.90;;;;;;4886215;29;20068;-81
2022/05/25 19:00:36;;;;;;;25.70;4.78;;;14.30;91.80;;;;;;4886695;29;20106;-83
2022/05/25 19:03:14;;;;;;;22.95;4.70;;;14.20;91.80;;;;;;4885774;29;20063;-83
2022/05/25 19:06:00;;;;;;;15.70;4.28;;;14.20;91.80;;;;;;4911846;29;20521;-81
2022/05/25 19:08:32;;;;;;;30.13;5.30;;;14.20;91.70;;;;;;4893818;29;20047;-76
2022/05/25 19:11:02;;;;;;;20.05;4.82;;;14.30;91.70;;;;;;4906311;29;20043;-78
2022/05/25 19:13:32;;;;;;;28.33;4.55;;;14.20;91.70;;;;;;4922378;29;20044;-78
2022/05/25 19:16:17;;;;;;;23.02;4.30;;;14.20;91.60;;;;;;4894565;29;20508;-76
2022/05/25 19:18:46;;;;;;;35.90;4.85;;;14.30;91.70;;;;;;4895480;29;20094;-76
2022/05/25 19:25:39;;;;;;;24.58;5.38;;;14.20;91.80;;;;;;4838202;29;20089;-72
2022/05/25 19:28:16;;;;;;;26.15;4.20;;;14.20;91.80;;;;;;4836733;29;20219;-73
2022/05/25 19:30:45;;;;;;;24.48;4.35;;;14.30;91.80;;;;;;4895087;29;20040;-70
2022/05/25 19:33:10;;;;;;;27.30;4.85;;;14.20;91.70;;;;;;4898709;29;20126;-72
2022/05/25 19:35:38;;;;;;;25.52;4.63;;;14.20;91.70;;;;;;4896767;29;20457;-72
2022/05/25 19:38:08;;;;;;;29.50;4.20;;;14.20;91.80;;;;;;4900857;29;20126;-72
2022/05/25 20:01:10;;;;;;;22.85;4.57;;;14.20;92.00;;;;;;4891916;29;20039;-75
2022/05/25 20:03:55;;;;;;;;;;;;;;;;;;;;;
2022/05/25 20:18:19;;;;;;;29.33;5.53;;;14.10;92.20;;;;;;4757942;29;20468;-73
2022/05/25 20:20:45;;;;;;;25.58;4.97;;;14.20;91.90;;;;;;4864017;29;20052;-73
2022/05/25 20:23:13;;;;;;;25.85;5.18;;;14.20;92.00;;;;;;4877792;29;20462;-74
2022/05/25 20:25:41;;;;;;;23.17;4.68;;;14.10;92.00;;;;;;4889290;29;20048;-74
2022/05/25 20:28:13;;;;;;;27.35;5.32;;;14.20;92.10;;;;;;4890175;29;20040;-74
2022/05/25 20:30:42;;;;;;;25.20;4.63;;;14.10;92.10;;;;;;4890346;29;20131;-75
2022/05/25 20:37:14;;;;;;;28.25;5.43;;;14.20;92.40;;;;;;4899355;29;20051;-76
2022/05/25 20:40:09;;;;;;;;;;;14.20;92.40;;;;;;4855637;29;20412;-74
2022/05/25 20:42:38;;;;;;;31.45;5.75;;;14.00;92.50;;;;;;4858326;29;19977;-73
2022/05/25 20:45:05;;;;;;;28.60;5.57;;;14.10;92.30;;;;;;4850422;29;20116;-71
2022/05/25 20:47:31;;;;;;;31.05;5.80;;;14.20;92.20;;;;;;4865490;29;20053;-72
2022/05/25 20:50:30;;;;;;;28.88;6.43;;;14.20;92.50;;;;;;4846829;29;20092;-74
2022/05/25 20:53:14;;;;;;;24.80;6.55;;;14.20;92.50;;;;;;4839733;29;20064;-73
2022/05/25 20:55:40;;;;;;;28.33;5.28;;;14.10;92.50;;;;;;4882075;29;20506;-71
2022/05/25 21:02:25;;;;;;;;;;;;;;;;;;;;;
2022/05/25 21:05:33;;;;;;;36.88;7.20;;;14.20;92.80;;;;;;4871475;29;19927;-73
2022/05/25 21:08:02;;;;;;;26.42;6.25;;;14.20;93.00;;;;;;4845683;29;20555;-72
2022/05/25 21:10:41;;;;;;;32.25;6.47;;;14.10;92.70;;;;;;4874115;29;20052;-73
2022/05/25 21:13:07;;;;;;;34.78;6.68;;;14.20;92.90;;;;;;4918755;29;20441;-72
2022/05/25 21:53:08;;;;;;;37.53;7.97;;;13.90;93.80;;;;;;5542733;23;20502;-73
2022/05/25 21:56:36;;;;;;;;;;;;;;;;;;;;;
2022/05/25 23:45:22;;;;;;;;;;;13.80;94.30;;;;;;4715815;30;20060;-81
